Terminal Aerodrome Forecast
Issued by NWS

Home | Current Version | Previous Version | Text Only | Print | Product List | Glossary On
Versions: 1 2 3 4 5 6 7 8 9 10 11 12 13 14
000
FTUS45 KPSR 282300
TAFIPL
TAF
KIPL 282338Z 0100/0124 26018G30KT P6SM SCT060
     FM010300 26014KT P6SM SCT080 BKN100
     FM011000 32006KT P6SM SCT060 OVC100
     FM011600 12006KT P6SM VCSH BKN060 OVC080 PROB30 0116/0120 -SHRA
      BKN050=

USA.gov is the U.S. government's official web portal to all federal, state and local government web resources and services.